sensor_id;sensor_type;location;lat;lon;timestamp;temperature;humidity
39345;DHT22;25061;51.954;6.996;2022-07-05T00:00:04;15.20;99.90
39345;DHT22;25061;51.954;6.996;2022-07-05T00:02:30;15.20;99.90
39345;DHT22;25061;51.954;6.996;2022-07-05T00:04:56;15.20;99.90
39345;DHT22;25061;51.954;6.996;2022-07-05T00:07:22;15.30;99.90
39345;DHT22;25061;51.954;6.996;2022-07-05T00:09:50;15.50;99.90
39345;DHT22;25061;51.954;6.996;2022-07-05T00:12:17;15.50;99.90
39345;DHT22;25061;51.954;6.996;2022-07-05T00:14:43;15.50;99.90
39345;DHT22;25061;51.954;6.996;2022-07-05T00:17:10;15.50;99.90
39345;DHT22;25061;51.954;6.996;2022-07-05T00:19:36;15.40;99.90
39345;DHT22;25061;51.954;6.996;2022-07-05T00:22:02;15.50;99.90
39345;DHT22;25061;51.954;6.996;2022-07-05T00:24:28;15.40;99.90
39345;DHT22;25061;51.954;6.996;2022-07-05T00:26:54;15.20;99.90
39345;DHT22;25061;51.954;6.996;2022-07-05T00:29:19;15.30;99.90
39345;DHT22;25061;51.954;6.996;2022-07-05T00:31:45;15.40;99.90
39345;DHT22;25061;51.954;6.996;2022-07-05T00:34:10;15.30;99.90
39345;DHT22;25061;51.954;6.996;2022-07-05T00:36:36;15.20;99.90
39345;DHT22;25061;51.954;6.996;2022-07-05T00:39:03;15.40;99.90
39345;DHT22;25061;51.954;6.996;2022-07-05T00:41:28;15.20;99.90
39345;DHT22;25061;51.954;6.996;2022-07-05T00:43:58;15.10;99.90
39345;DHT22;25061;51.954;6.996;2022-07-05T00:46:24;15.00;99.90
39345;DHT22;25061;51.954;6.996;2022-07-05T00:48:50;15.20;99.90
39345;DHT22;25061;51.954;6.996;2022-07-05T00:51:16;15.40;99.90
39345;DHT22;25061;51.954;6.996;2022-07-05T00:53:43;15.20;99.90
39345;DHT22;25061;51.954;6.996;2022-07-05T00:56:13;15.10;99.90
39345;DHT22;25061;51.954;6.996;2022-07-05T00:58:38;15.10;99.90
39345;DHT22;25061;51.954;6.996;2022-07-05T01:01:07;14.90;99.90
39345;DHT22;25061;51.954;6.996;2022-07-05T01:03:33;14.80;99.90
39345;DHT22;25061;51.954;6.996;2022-07-05T01:06:02;15.00;99.90
39345;DHT22;25061;51.954;6.996;2022-07-05T01:08:28;15.10;99.90
39345;DHT22;25061;51.954;6.996;2022-07-05T01:10:55;15.20;99.90
39345;DHT22;25061;51.954;6.996;2022-07-05T01:13:24;15.20;99.90
39345;DHT22;25061;51.954;6.996;2022-07-05T01:15:51;14.80;99.90
39345;DHT22;25061;51.954;6.996;2022-07-05T01:18:17;14.70;99.90
39345;DHT22;25061;51.954;6.996;2022-07-05T01:20:43;14.50;99.90
39345;DHT22;25061;51.954;6.996;2022-07-05T01:23:09;14.40;99.90
39345;DHT22;25061;51.954;6.996;2022-07-05T01:25:35;14.40;99.90
39345;DHT22;25061;51.954;6.996;2022-07-05T01:28:03;14.40;99.90
39345;DHT22;25061;51.954;6.996;2022-07-05T01:30:30;14.60;99.90
39345;DHT22;25061;51.954;6.996;2022-07-05T01:32:58;14.60;99.90
39345;DHT22;25061;51.954;6.996;2022-07-05T01:35:23;14.50;99.90
39345;DHT22;25061;51.954;6.996;2022-07-05T01:37:50;14.60;99.90
39345;DHT22;25061;51.954;6.996;2022-07-05T01:40:17;14.70;99.90
39345;DHT22;25061;51.954;6.996;2022-07-05T01:42:44;14.60;99.90
39345;DHT22;25061;51.954;6.996;2022-07-05T01:45:10;14.30;99.90
39345;DHT22;25061;51.954;6.996;2022-07-05T01:47:42;14.20;99.90
39345;DHT22;25061;51.954;6.996;2022-07-05T01:50:12;14.00;99.90
39345;DHT22;25061;51.954;6.996;2022-07-05T01:52:39;13.90;99.90
39345;DHT22;25061;51.954;6.996;2022-07-05T01:55:07;14.00;99.90
39345;DHT22;25061;51.954;6.996;2022-07-05T01:57:33;14.20;99.90
39345;DHT22;25061;51.954;6.996;2022-07-05T01:59:58;14.40;99.90
39345;DHT22;25061;51.954;6.996;2022-07-05T02:02:24;14.50;99.90
39345;DHT22;25061;51.954;6.996;2022-07-05T02:04:49;14.20;99.90
39345;DHT22;25061;51.954;6.996;2022-07-05T02:07:15;14.00;99.90
39345;DHT22;25061;51.954;6.996;2022-07-05T02:09:41;14.00;99.90
39345;DHT22;25061;51.954;6.996;2022-07-05T02:12:06;13.90;99.90
39345;DHT22;25061;51.954;6.996;2022-07-05T02:14:32;13.60;99.90
39345;DHT22;25061;51.954;6.996;2022-07-05T02:16:58;13.50;99.90
39345;DHT22;25061;51.954;6.996;2022-07-05T02:19:24;13.40;99.90
39345;DHT22;25061;51.954;6.996;2022-07-05T02:21:49;13.50;99.90
39345;DHT22;25061;51.954;6.996;2022-07-05T02:24:15;13.50;99.90
39345;DHT22;25061;51.954;6.996;2022-07-05T02:26:40;13.70;99.90
39345;DHT22;25061;51.954;6.996;2022-07-05T02:29:06;13.70;99.90
39345;DHT22;25061;51.954;6.996;2022-07-05T02:31:32;13.70;99.90
39345;DHT22;25061;51.954;6.996;2022-07-05T02:33:58;13.70;99.90
39345;DHT22;25061;51.954;6.996;2022-07-05T02:36:24;13.40;99.90
39345;DHT22;25061;51.954;6.996;2022-07-05T02:38:50;13.20;99.90
39345;DHT22;25061;51.954;6.996;2022-07-05T02:41:15;13.40;99.90
39345;DHT22;25061;51.954;6.996;2022-07-05T02:43:41;13.50;99.90
39345;DHT22;25061;51.954;6.996;2022-07-05T02:46:08;13.60;99.90
39345;DHT22;25061;51.954;6.996;2022-07-05T02:48:34;13.50;99.90
39345;DHT22;25061;51.954;6.996;2022-07-05T02:51:00;13.30;99.90
39345;DHT22;25061;51.954;6.996;2022-07-05T02:53:26;13.30;99.90
39345;DHT22;25061;51.954;6.996;2022-07-05T02:55:52;13.40;99.90
39345;DHT22;25061;51.954;6.996;2022-07-05T02:58:18;13.30;99.90
39345;DHT22;25061;51.954;6.996;2022-07-05T03:00:45;13.40;99.90
39345;DHT22;25061;51.954;6.996;2022-07-05T03:03:12;13.50;99.90
39345;DHT22;25061;51.954;6.996;2022-07-05T03:05:38;13.50;99.90
39345;DHT22;25061;51.954;6.996;2022-07-05T03:08:04;13.30;99.90
39345;DHT22;25061;51.954;6.996;2022-07-05T03:10:30;13.10;99.90
39345;DHT22;25061;51.954;6.996;2022-07-05T03:12:55;13.00;99.90
39345;DHT22;25061;51.954;6.996;2022-07-05T03:15:21;13.20;99.90
39345;DHT22;25061;51.954;6.996;2022-07-05T03:17:46;13.20;99.90
39345;DHT22;25061;51.954;6.996;2022-07-05T03:20:12;13.00;99.90
39345;DHT22;25061;51.954;6.996;2022-07-05T03:22:38;12.90;99.90
39345;DHT22;25061;51.954;6.996;2022-07-05T03:25:04;12.90;99.90
39345;DHT22;25061;51.954;6.996;2022-07-05T03:27:30;13.00;99.90
39345;DHT22;25061;51.954;6.996;2022-07-05T03:29:55;13.00;99.90
39345;DHT22;25061;51.954;6.996;2022-07-05T03:32:21;13.10;99.90
39345;DHT22;25061;51.954;6.996;2022-07-05T03:34:46;12.90;99.90
39345;DHT22;25061;51.954;6.996;2022-07-05T03:37:12;12.90;99.90
39345;DHT22;25061;51.954;6.996;2022-07-05T03:39:38;12.80;99.90
39345;DHT22;25061;51.954;6.996;2022-07-05T03:42:03;12.80;99.90
39345;DHT22;25061;51.954;6.996;2022-07-05T03:44:29;13.00;99.90
39345;DHT22;25061;51.954;6.996;2022-07-05T03:46:57;13.00;99.90
39345;DHT22;25061;51.954;6.996;2022-07-05T03:49:22;12.90;99.90
39345;DHT22;25061;51.954;6.996;2022-07-05T03:51:48;12.70;99.90
39345;DHT22;25061;51.954;6.996;2022-07-05T03:54:14;12.90;99.90
39345;DHT22;25061;51.954;6.996;2022-07-05T03:56:39;12.90;99.90
39345;DHT22;25061;51.954;6.996;2022-07-05T03:59:05;12.90;99.90
39345;DHT22;25061;51.954;6.996;2022-07-05T04:01:30;13.00;99.90
39345;DHT22;25061;51.954;6.996;2022-07-05T04:03:56;13.10;99.90
39345;DHT22;25061;51.954;6.996;2022-07-05T04:06:22;13.10;99.90
39345;DHT22;25061;51.954;6.996;2022-07-05T04:08:47;13.20;99.90
39345;DHT22;25061;51.954;6.996;2022-07-05T04:11:13;13.20;99.90
39345;DHT22;25061;51.954;6.996;2022-07-05T04:13:39;13.50;99.90
39345;DHT22;25061;51.954;6.996;2022-07-05T04:16:05;13.50;99.90
39345;DHT22;25061;51.954;6.996;2022-07-05T04:18:31;13.50;99.90
39345;DHT22;25061;51.954;6.996;2022-07-05T04:20:56;13.40;99.90
39345;DHT22;25061;51.954;6.996;2022-07-05T04:23:22;13.30;99.90
39345;DHT22;25061;51.954;6.996;2022-07-05T04:25:48;13.30;99.90
39345;DHT22;25061;51.954;6.996;2022-07-05T04:28:13;13.40;99.90
39345;DHT22;25061;51.954;6.996;2022-07-05T04:30:39;13.40;99.90
39345;DHT22;25061;51.954;6.996;2022-07-05T04:33:04;13.70;99.90
39345;DHT22;25061;51.954;6.996;2022-07-05T04:35:30;13.80;99.90
39345;DHT22;25061;51.954;6.996;2022-07-05T04:37:55;13.70;99.90
39345;DHT22;25061;51.954;6.996;2022-07-05T04:40:21;13.70;99.90
39345;DHT22;25061;51.954;6.996;2022-07-05T04:42:46;13.80;99.90
39345;DHT22;25061;51.954;6.996;2022-07-05T04:45:12;13.90;99.90
39345;DHT22;25061;51.954;6.996;2022-07-05T04:47:37;14.00;99.90
39345;DHT22;25061;51.954;6.996;2022-07-05T04:50:04;14.00;99.90
39345;DHT22;25061;51.954;6.996;2022-07-05T04:52:30;14.10;99.90
39345;DHT22;25061;51.954;6.996;2022-07-05T04:54:56;14.20;99.90
39345;DHT22;25061;51.954;6.996;2022-07-05T04:57:22;14.20;99.90
39345;DHT22;25061;51.954;6.996;2022-07-05T04:59:47;14.20;99.90
39345;DHT22;25061;51.954;6.996;2022-07-05T05:02:13;14.10;99.90
39345;DHT22;25061;51.954;6.996;2022-07-05T05:04:38;14.30;99.90
39345;DHT22;25061;51.954;6.996;2022-07-05T05:07:04;14.30;99.90
39345;DHT22;25061;51.954;6.996;2022-07-05T05:09:30;14.50;99.90
39345;DHT22;25061;51.954;6.996;2022-07-05T05:11:56;14.50;99.90
39345;DHT22;25061;51.954;6.996;2022-07-05T05:14:21;14.50;99.90
39345;DHT22;25061;51.954;6.996;2022-07-05T05:16:47;14.50;99.90
39345;DHT22;25061;51.954;6.996;2022-07-05T05:19:13;14.60;99.90
39345;DHT22;25061;51.954;6.996;2022-07-05T05:21:39;14.80;99.90
39345;DHT22;25061;51.954;6.996;2022-07-05T05:24:05;15.00;99.90
39345;DHT22;25061;51.954;6.996;2022-07-05T05:26:31;15.20;99.90
39345;DHT22;25061;51.954;6.996;2022-07-05T05:28:57;15.20;99.90
39345;DHT22;25061;51.954;6.996;2022-07-05T05:31:22;15.20;99.90
39345;DHT22;25061;51.954;6.996;2022-07-05T05:33:48;15.50;99.90
39345;DHT22;25061;51.954;6.996;2022-07-05T05:36:13;15.80;99.90
39345;DHT22;25061;51.954;6.996;2022-07-05T05:38:39;16.10;99.90
39345;DHT22;25061;51.954;6.996;2022-07-05T05:41:05;16.30;99.90
39345;DHT22;25061;51.954;6.996;2022-07-05T05:43:31;16.50;99.90
39345;DHT22;25061;51.954;6.996;2022-07-05T05:45:57;16.30;99.90
39345;DHT22;25061;51.954;6.996;2022-07-05T05:48:22;16.40;99.90
39345;DHT22;25061;51.954;6.996;2022-07-05T05:50:48;16.10;99.90
39345;DHT22;25061;51.954;6.996;2022-07-05T05:53:15;16.10;99.90
39345;DHT22;25061;51.954;6.996;2022-07-05T05:55:40;16.10;99.90
39345;DHT22;25061;51.954;6.996;2022-07-05T05:58:18;16.10;99.90
39345;DHT22;25061;51.954;6.996;2022-07-05T06:00:45;16.60;99.90
39345;DHT22;25061;51.954;6.996;2022-07-05T06:03:16;16.50;99.90
39345;DHT22;25061;51.954;6.996;2022-07-05T06:05:42;16.30;99.90
39345;DHT22;25061;51.954;6.996;2022-07-05T06:08:07;16.20;99.90
39345;DHT22;25061;51.954;6.996;2022-07-05T06:10:34;16.10;99.90
39345;DHT22;25061;51.954;6.996;2022-07-05T06:13:03;16.10;99.90
39345;DHT22;25061;51.954;6.996;2022-07-05T06:15:29;16.10;99.90
39345;DHT22;25061;51.954;6.996;2022-07-05T06:17:55;16.20;99.90
39345;DHT22;25061;51.954;6.996;2022-07-05T06:20:23;16.30;99.90
39345;DHT22;25061;51.954;6.996;2022-07-05T06:22:49;16.40;99.90
39345;DHT22;25061;51.954;6.996;2022-07-05T06:25:15;16.60;99.90
39345;DHT22;25061;51.954;6.996;2022-07-05T06:27:43;17.00;99.90
39345;DHT22;25061;51.954;6.996;2022-07-05T06:30:10;17.60;99.90
39345;DHT22;25061;51.954;6.996;2022-07-05T06:32:36;17.90;99.90
39345;DHT22;25061;51.954;6.996;2022-07-05T06:35:02;17.60;99.90
39345;DHT22;25061;51.954;6.996;2022-07-05T06:40:13;16.80;99.90
39345;DHT22;25061;51.954;6.996;2022-07-05T06:42:38;17.00;99.90
39345;DHT22;25061;51.954;6.996;2022-07-05T06:45:06;17.90;99.90
39345;DHT22;25061;51.954;6.996;2022-07-05T06:47:32;19.00;99.90
39345;DHT22;25061;51.954;6.996;2022-07-05T06:49:58;18.90;99.90
39345;DHT22;25061;51.954;6.996;2022-07-05T06:52:24;18.70;99.90
39345;DHT22;25061;51.954;6.996;2022-07-05T06:54:49;18.80;99.90
39345;DHT22;25061;51.954;6.996;2022-07-05T06:57:21;19.40;99.90
39345;DHT22;25061;51.954;6.996;2022-07-05T06:59:48;20.10;99.90
39345;DHT22;25061;51.954;6.996;2022-07-05T07:02:14;20.90;99.90
39345;DHT22;25061;51.954;6.996;2022-07-05T07:04:39;20.90;99.90
39345;DHT22;25061;51.954;6.996;2022-07-05T07:07:05;20.10;99.90
39345;DHT22;25061;51.954;6.996;2022-07-05T07:09:50;19.90;99.90
39345;DHT22;25061;51.954;6.996;2022-07-05T07:12:16;20.50;99.90
39345;DHT22;25061;51.954;6.996;2022-07-05T07:14:41;21.00;99.90
39345;DHT22;25061;51.954;6.996;2022-07-05T07:17:07;20.60;99.90
39345;DHT22;25061;51.954;6.996;2022-07-05T07:19:33;20.90;99.90
39345;DHT22;25061;51.954;6.996;2022-07-05T07:21:58;20.60;99.90
39345;DHT22;25061;51.954;6.996;2022-07-05T07:24:24;21.20;99.90
39345;DHT22;25061;51.954;6.996;2022-07-05T07:26:49;20.80;99.90
39345;DHT22;25061;51.954;6.996;2022-07-05T07:29:33;21.80;99.90
39345;DHT22;25061;51.954;6.996;2022-07-05T07:31:59;22.50;99.90
39345;DHT22;25061;51.954;6.996;2022-07-05T07:34:26;23.40;99.90
39345;DHT22;25061;51.954;6.996;2022-07-05T07:36:52;23.80;99.90
39345;DHT22;25061;51.954;6.996;2022-07-05T07:39:18;23.90;99.90
39345;DHT22;25061;51.954;6.996;2022-07-05T07:41:43;23.70;99.90
39345;DHT22;25061;51.954;6.996;2022-07-05T07:44:09;23.20;99.90
39345;DHT22;25061;51.954;6.996;2022-07-05T07:46:35;23.90;99.90
39345;DHT22;25061;51.954;6.996;2022-07-05T07:49:01;24.60;99.10
39345;DHT22;25061;51.954;6.996;2022-07-05T07:51:27;23.50;99.60
39345;DHT22;25061;51.954;6.996;2022-07-05T07:53:53;24.10;99.30
39345;DHT22;25061;51.954;6.996;2022-07-05T07:56:18;24.40;99.00
39345;DHT22;25061;51.954;6.996;2022-07-05T07:58:44;25.60;97.80
39345;DHT22;25061;51.954;6.996;2022-07-05T08:01:10;24.40;98.40
39345;DHT22;25061;51.954;6.996;2022-07-05T08:03:39;23.60;97.70
39345;DHT22;25061;51.954;6.996;2022-07-05T08:06:07;23.10;98.90
39345;DHT22;25061;51.954;6.996;2022-07-05T08:08:34;24.60;97.60
39345;DHT22;25061;51.954;6.996;2022-07-05T08:10:59;25.00;97.70
39345;DHT22;25061;51.954;6.996;2022-07-05T08:13:25;24.30;95.10
39345;DHT22;25061;51.954;6.996;2022-07-05T08:15:51;23.90;95.10
39345;DHT22;25061;51.954;6.996;2022-07-05T08:18:17;24.50;94.20
39345;DHT22;25061;51.954;6.996;2022-07-05T08:21:01;23.20;93.90
39345;DHT22;25061;51.954;6.996;2022-07-05T08:23:45;24.20;95.60
39345;DHT22;25061;51.954;6.996;2022-07-05T08:26:10;24.20;94.30
39345;DHT22;25061;51.954;6.996;2022-07-05T08:28:36;23.90;95.00
39345;DHT22;25061;51.954;6.996;2022-07-05T08:31:01;22.80;95.90
39345;DHT22;25061;51.954;6.996;2022-07-05T08:33:27;23.30;93.90
39345;DHT22;25061;51.954;6.996;2022-07-05T08:35:52;23.20;94.60
39345;DHT22;25061;51.954;6.996;2022-07-05T08:38:18;24.10;94.50
39345;DHT22;25061;51.954;6.996;2022-07-05T08:40:47;24.80;94.40
39345;DHT22;25061;51.954;6.996;2022-07-05T08:43:15;23.70;95.10
39345;DHT22;25061;51.954;6.996;2022-07-05T08:45:43;24.60;93.90
39345;DHT22;25061;51.954;6.996;2022-07-05T08:48:09;25.00;93.90
39345;DHT22;25061;51.954;6.996;2022-07-05T08:50:37;25.50;93.50
39345;DHT22;25061;51.954;6.996;2022-07-05T08:53:05;25.30;93.50
39345;DHT22;25061;51.954;6.996;2022-07-05T08:55:32;25.20;94.00
39345;DHT22;25061;51.954;6.996;2022-07-05T08:57:57;25.50;93.40
39345;DHT22;25061;51.954;6.996;2022-07-05T09:00:23;26.00;93.20
39345;DHT22;25061;51.954;6.996;2022-07-05T09:02:50;25.20;93.00
39345;DHT22;25061;51.954;6.996;2022-07-05T09:05:18;24.70;93.10
39345;DHT22;25061;51.954;6.996;2022-07-05T09:07:52;25.00;93.60
39345;DHT22;25061;51.954;6.996;2022-07-05T09:10:22;24.80;93.20
39345;DHT22;25061;51.954;6.996;2022-07-05T09:12:48;24.70;93.40
39345;DHT22;25061;51.954;6.996;2022-07-05T09:15:13;24.40;92.80
39345;DHT22;25061;51.954;6.996;2022-07-05T09:17:45;25.00;93.50
39345;DHT22;25061;51.954;6.996;2022-07-05T09:20:16;24.40;93.50
39345;DHT22;25061;51.954;6.996;2022-07-05T09:22:50;25.10;93.30
39345;DHT22;25061;51.954;6.996;2022-07-05T09:25:31;24.90;93.20
39345;DHT22;25061;51.954;6.996;2022-07-05T09:28:00;24.10;93.70
39345;DHT22;25061;51.954;6.996;2022-07-05T09:30:26;23.20;94.10
39345;DHT22;25061;51.954;6.996;2022-07-05T09:33:11;23.50;94.30
39345;DHT22;25061;51.954;6.996;2022-07-05T09:35:38;24.40;94.00
39345;DHT22;25061;51.954;6.996;2022-07-05T09:38:06;24.80;93.00
39345;DHT22;25061;51.954;6.996;2022-07-05T09:40:46;24.20;94.60
39345;DHT22;25061;51.954;6.996;2022-07-05T09:43:14;23.00;95.00
39345;DHT22;25061;51.954;6.996;2022-07-05T09:45:55;22.70;94.90
39345;DHT22;25061;51.954;6.996;2022-07-05T09:48:22;22.40;94.90
39345;DHT22;25061;51.954;6.996;2022-07-05T09:50:48;21.50;96.10
39345;DHT22;25061;51.954;6.996;2022-07-05T09:53:14;21.70;96.10
39345;DHT22;25061;51.954;6.996;2022-07-05T09:55:40;22.30;95.50
39345;DHT22;25061;51.954;6.996;2022-07-05T09:58:06;22.10;94.80
39345;DHT22;25061;51.954;6.996;2022-07-05T10:00:32;22.00;95.10
39345;DHT22;25061;51.954;6.996;2022-07-05T10:02:58;22.20;94.90
39345;DHT22;25061;51.954;6.996;2022-07-05T10:05:29;22.50;94.90
39345;DHT22;25061;51.954;6.996;2022-07-05T10:07:59;21.70;96.10
39345;DHT22;25061;51.954;6.996;2022-07-05T10:10:26;21.60;96.10
39345;DHT22;25061;51.954;6.996;2022-07-05T10:12:55;21.70;96.30
39345;DHT22;25061;51.954;6.996;2022-07-05T10:15:22;21.60;96.70
39345;DHT22;25061;51.954;6.996;2022-07-05T10:18:12;21.70;96.80
39345;DHT22;25061;51.954;6.996;2022-07-05T10:23:11;21.60;97.50
39345;DHT22;25061;51.954;6.996;2022-07-05T10:25:39;21.30;97.30
39345;DHT22;25061;51.954;6.996;2022-07-05T10:28:06;21.30;97.30
39345;DHT22;25061;51.954;6.996;2022-07-05T10:30:32;21.50;97.10
39345;DHT22;25061;51.954;6.996;2022-07-05T10:33:00;21.50;97.50
39345;DHT22;25061;51.954;6.996;2022-07-05T10:35:27;21.00;97.40
39345;DHT22;25061;51.954;6.996;2022-07-05T10:37:53;20.80;97.20
39345;DHT22;25061;51.954;6.996;2022-07-05T10:40:19;21.00;97.60
39345;DHT22;25061;51.954;6.996;2022-07-05T10:42:55;21.00;97.10
39345;DHT22;25061;51.954;6.996;2022-07-05T10:45:25;21.50;96.80
39345;DHT22;25061;51.954;6.996;2022-07-05T10:53:17;23.70;94.50
39345;DHT22;25061;51.954;6.996;2022-07-05T10:58:24;22.00;95.30
39345;DHT22;25061;51.954;6.996;2022-07-05T11:03:44;21.70;95.70
39345;DHT22;25061;51.954;6.996;2022-07-05T11:06:25;21.40;96.30
39345;DHT22;25061;51.954;6.996;2022-07-05T11:11:38;23.10;94.70
39345;DHT22;25061;51.954;6.996;2022-07-05T11:22:22;23.70;94.40
39345;DHT22;25061;51.954;6.996;2022-07-05T11:24:48;23.20;94.40
39345;DHT22;25061;51.954;6.996;2022-07-05T11:27:14;23.10;94.20
39345;DHT22;25061;51.954;6.996;2022-07-05T11:29:46;23.60;94.20
39345;DHT22;25061;51.954;6.996;2022-07-05T11:34:41;23.70;93.80
39345;DHT22;25061;51.954;6.996;2022-07-05T11:39:42;23.90;92.90
39345;DHT22;25061;51.954;6.996;2022-07-05T11:42:08;24.00;93.80
39345;DHT22;25061;51.954;6.996;2022-07-05T11:44:35;23.70;94.40
39345;DHT22;25061;51.954;6.996;2022-07-05T11:47:02;23.80;93.80
39345;DHT22;25061;51.954;6.996;2022-07-05T11:49:28;24.40;93.80
39345;DHT22;25061;51.954;6.996;2022-07-05T11:52:00;24.10;93.50
39345;DHT22;25061;51.954;6.996;2022-07-05T11:54:28;23.50;93.60
39345;DHT22;25061;51.954;6.996;2022-07-05T11:56:54;23.90;93.30
39345;DHT22;25061;51.954;6.996;2022-07-05T11:59:22;23.40;93.00
39345;DHT22;25061;51.954;6.996;2022-07-05T12:01:47;22.90;93.70
39345;DHT22;25061;51.954;6.996;2022-07-05T12:04:24;22.70;93.50
39345;DHT22;25061;51.954;6.996;2022-07-05T12:06:50;23.20;93.90
39345;DHT22;25061;51.954;6.996;2022-07-05T12:09:22;23.90;94.10
39345;DHT22;25061;51.954;6.996;2022-07-05T12:11:52;23.10;93.80
39345;DHT22;25061;51.954;6.996;2022-07-05T12:14:36;22.90;94.60
39345;DHT22;25061;51.954;6.996;2022-07-05T12:17:13;22.70;95.10
39345;DHT22;25061;51.954;6.996;2022-07-05T12:19:39;22.70;93.90
39345;DHT22;25061;51.954;6.996;2022-07-05T12:22:04;22.90;94.00
39345;DHT22;25061;51.954;6.996;2022-07-05T12:24:30;22.70;94.10
39345;DHT22;25061;51.954;6.996;2022-07-05T12:26:56;22.40;94.50
39345;DHT22;25061;51.954;6.996;2022-07-05T12:29:22;22.50;94.80
39345;DHT22;25061;51.954;6.996;2022-07-05T12:32:04;22.50;94.40
39345;DHT22;25061;51.954;6.996;2022-07-05T12:34:34;22.80;94.50
39345;DHT22;25061;51.954;6.996;2022-07-05T12:36:59;23.30;94.00
39345;DHT22;25061;51.954;6.996;2022-07-05T12:39:25;23.10;94.30
39345;DHT22;25061;51.954;6.996;2022-07-05T12:41:51;22.90;94.20
39345;DHT22;25061;51.954;6.996;2022-07-05T12:44:20;22.90;94.20
39345;DHT22;25061;51.954;6.996;2022-07-05T12:46:47;22.60;94.20
39345;DHT22;25061;51.954;6.996;2022-07-05T12:49:15;22.60;95.10
39345;DHT22;25061;51.954;6.996;2022-07-05T12:51:42;22.70;94.90
39345;DHT22;25061;51.954;6.996;2022-07-05T12:54:21;22.60;94.30
39345;DHT22;25061;51.954;6.996;2022-07-05T12:57:06;22.90;94.30
39345;DHT22;25061;51.954;6.996;2022-07-05T13:00:17;22.60;94.60
39345;DHT22;25061;51.954;6.996;2022-07-05T13:02:45;22.80;94.70
39345;DHT22;25061;51.954;6.996;2022-07-05T13:05:23;23.20;96.00
39345;DHT22;25061;51.954;6.996;2022-07-05T13:07:50;22.90;94.90
39345;DHT22;25061;51.954;6.996;2022-07-05T13:10:27;23.30;94.90
39345;DHT22;25061;51.954;6.996;2022-07-05T13:12:57;23.70;94.60
39345;DHT22;25061;51.954;6.996;2022-07-05T13:15:23;23.70;94.00
39345;DHT22;25061;51.954;6.996;2022-07-05T13:17:49;23.00;94.10
39345;DHT22;25061;51.954;6.996;2022-07-05T13:20:18;22.70;95.10
39345;DHT22;25061;51.954;6.996;2022-07-05T13:22:46;22.40;95.20
39345;DHT22;25061;51.954;6.996;2022-07-05T13:25:12;22.40;95.30
39345;DHT22;25061;51.954;6.996;2022-07-05T13:27:41;22.70;95.00
39345;DHT22;25061;51.954;6.996;2022-07-05T13:30:07;22.60;95.10
39345;DHT22;25061;51.954;6.996;2022-07-05T13:32:33;22.60;95.60
39345;DHT22;25061;51.954;6.996;2022-07-05T13:34:59;22.20;95.60
39345;DHT22;25061;51.954;6.996;2022-07-05T13:37:25;21.90;95.50
39345;DHT22;25061;51.954;6.996;2022-07-05T13:39:50;21.90;95.70
39345;DHT22;25061;51.954;6.996;2022-07-05T13:42:16;21.90;96.00
39345;DHT22;25061;51.954;6.996;2022-07-05T13:44:41;21.50;96.20
39345;DHT22;25061;51.954;6.996;2022-07-05T13:47:07;21.30;96.90
39345;DHT22;25061;51.954;6.996;2022-07-05T13:49:33;21.30;97.10
39345;DHT22;25061;51.954;6.996;2022-07-05T13:51:58;21.50;97.00
39345;DHT22;25061;51.954;6.996;2022-07-05T13:54:27;21.60;97.20
39345;DHT22;25061;51.954;6.996;2022-07-05T13:56:53;21.40;97.20
39345;DHT22;25061;51.954;6.996;2022-07-05T13:59:19;21.10;98.20
39345;DHT22;25061;51.954;6.996;2022-07-05T14:01:44;20.90;98.50
39345;DHT22;25061;51.954;6.996;2022-07-05T14:04:10;21.10;98.80
39345;DHT22;25061;51.954;6.996;2022-07-05T14:06:35;21.30;97.90
39345;DHT22;25061;51.954;6.996;2022-07-05T14:09:03;21.70;97.50
39345;DHT22;25061;51.954;6.996;2022-07-05T14:11:28;21.60;96.80
39345;DHT22;25061;51.954;6.996;2022-07-05T14:13:55;22.20;96.40
39345;DHT22;25061;51.954;6.996;2022-07-05T14:16:21;22.20;96.10
39345;DHT22;25061;51.954;6.996;2022-07-05T14:18:48;22.10;96.60
39345;DHT22;25061;51.954;6.996;2022-07-05T14:21:15;22.20;96.00
39345;DHT22;25061;51.954;6.996;2022-07-05T14:23:42;22.20;96.00
39345;DHT22;25061;51.954;6.996;2022-07-05T14:26:07;22.00;95.50
39345;DHT22;25061;51.954;6.996;2022-07-05T14:28:34;21.80;95.80
39345;DHT22;25061;51.954;6.996;2022-07-05T14:31:00;22.00;96.00
39345;DHT22;25061;51.954;6.996;2022-07-05T14:33:25;21.90;95.40
39345;DHT22;25061;51.954;6.996;2022-07-05T14:35:51;22.10;95.80
39345;DHT22;25061;51.954;6.996;2022-07-05T14:38:17;22.20;95.70
39345;DHT22;25061;51.954;6.996;2022-07-05T14:40:42;21.80;95.20
39345;DHT22;25061;51.954;6.996;2022-07-05T14:43:08;21.80;95.80
39345;DHT22;25061;51.954;6.996;2022-07-05T14:45:33;21.50;95.50
39345;DHT22;25061;51.954;6.996;2022-07-05T14:47:59;21.40;96.20
39345;DHT22;25061;51.954;6.996;2022-07-05T14:50:25;21.30;96.40
39345;DHT22;25061;51.954;6.996;2022-07-05T14:52:50;21.40;96.70
39345;DHT22;25061;51.954;6.996;2022-07-05T14:55:16;21.60;96.20
39345;DHT22;25061;51.954;6.996;2022-07-05T14:57:42;21.50;96.50
39345;DHT22;25061;51.954;6.996;2022-07-05T15:00:10;21.70;97.60
39345;DHT22;25061;51.954;6.996;2022-07-05T15:02:36;22.00;96.80
39345;DHT22;25061;51.954;6.996;2022-07-05T15:05:03;21.60;96.90
39345;DHT22;25061;51.954;6.996;2022-07-05T15:07:29;21.60;97.20
39345;DHT22;25061;51.954;6.996;2022-07-05T15:09:55;21.60;97.60
39345;DHT22;25061;51.954;6.996;2022-07-05T15:12:21;21.40;97.80
39345;DHT22;25061;51.954;6.996;2022-07-05T15:14:46;21.10;97.80
39345;DHT22;25061;51.954;6.996;2022-07-05T15:17:12;21.00;98.00
39345;DHT22;25061;51.954;6.996;2022-07-05T15:19:37;21.10;98.00
39345;DHT22;25061;51.954;6.996;2022-07-05T15:22:05;21.20;97.80
39345;DHT22;25061;51.954;6.996;2022-07-05T15:24:31;21.40;98.60
39345;DHT22;25061;51.954;6.996;2022-07-05T15:26:57;21.40;98.20
39345;DHT22;25061;51.954;6.996;2022-07-05T15:29:22;21.30;98.80
39345;DHT22;25061;51.954;6.996;2022-07-05T15:31:49;21.70;98.80
39345;DHT22;25061;51.954;6.996;2022-07-05T15:34:15;21.70;98.30
39345;DHT22;25061;51.954;6.996;2022-07-05T15:36:40;21.30;98.90
39345;DHT22;25061;51.954;6.996;2022-07-05T15:39:06;21.50;98.90
39345;DHT22;25061;51.954;6.996;2022-07-05T15:41:34;21.60;98.30
39345;DHT22;25061;51.954;6.996;2022-07-05T15:44:02;21.20;98.90
39345;DHT22;25061;51.954;6.996;2022-07-05T15:46:27;21.30;98.60
39345;DHT22;25061;51.954;6.996;2022-07-05T15:49:13;21.30;98.60
39345;DHT22;25061;51.954;6.996;2022-07-05T15:51:39;21.60;98.10
39345;DHT22;25061;51.954;6.996;2022-07-05T15:54:05;21.40;98.10
39345;DHT22;25061;51.954;6.996;2022-07-05T15:56:30;21.30;98.70
39345;DHT22;25061;51.954;6.996;2022-07-05T15:58:56;21.00;98.20
39345;DHT22;25061;51.954;6.996;2022-07-05T16:01:21;21.20;98.60